Time;durP1;ratioP1;P1;durP2;ratioP2;P2;SDS_P1;SDS_P2;PMS_P1;PMS_P2;Temp;Humidity;BMP_temperature;BMP_pressure;BME280_temperature;BME280_humidity;BME280_pressure;Samples;Min_cycle;Max_cycle;Signal;HPM_P1;HPM_P2
2023/06/14 00:00:44;;;;;;;4.85;4.32;;;20.80;57.40;;;;;;5023903;28;20045;-81
2023/06/14 00:03:11;;;;;;;10.73;4.30;;;20.80;57.40;;;;;;5025030;28;20500;-81
2023/06/14 00:05:42;;;;;;;5.40;4.35;;;20.80;57.30;;;;;;5023619;28;20020;-80
2023/06/14 00:08:11;;;;;;;8.52;4.40;;;20.80;57.30;;;;;;5026150;28;20025;-81
2023/06/14 00:10:40;;;;;;;7.65;4.47;;;20.70;57.40;;;;;;5027939;28;20096;-81
2023/06/14 00:13:07;;;;;;;7.53;4.50;;;20.70;57.30;;;;;;5027530;28;20029;-81
2023/06/14 00:15:33;;;;;;;12.20;4.60;;;20.70;57.40;;;;;;5049291;28;20095;-81
2023/06/14 00:18:00;;;;;;;7.18;4.55;;;20.70;57.50;;;;;;5027545;28;20061;-81
2023/06/14 00:20:27;;;;;;;5.07;3.83;;;20.60;57.40;;;;;;5047008;28;20025;-82
2023/06/14 00:22:54;;;;;;;11.35;4.00;;;20.60;57.60;;;;;;5026182;28;20029;-82
2023/06/14 00:25:22;;;;;;;12.45;4.05;;;20.60;57.50;;;;;;5026688;28;20420;-81
2023/06/14 00:27:47;;;;;;;6.97;3.95;;;20.50;57.50;;;;;;5024985;28;20021;-81
2023/06/14 00:30:14;;;;;;;5.82;4.30;;;20.50;57.50;;;;;;5026468;28;20017;-81
2023/06/14 00:32:39;;;;;;;13.30;4.15;;;20.50;57.40;;;;;;5026823;28;20072;-81
2023/06/14 00:35:05;;;;;;;5.43;3.72;;;20.50;57.50;;;;;;5027274;28;20017;-81
2023/06/14 00:37:31;;;;;;;10.25;3.63;;;20.50;57.40;;;;;;5023293;28;20037;-81
2023/06/14 00:39:56;;;;;;;5.28;3.55;;;20.40;57.70;;;;;;5025644;28;20025;-80
2023/06/14 00:42:26;;;;;;;5.53;3.78;;;20.40;57.70;;;;;;5024684;28;20036;-82
2023/06/14 00:44:52;;;;;;;8.85;3.70;;;20.40;57.50;;;;;;5025409;28;20043;-81
2023/06/14 00:47:18;;;;;;;8.20;3.63;;;20.50;57.50;;;;;;5026343;28;20231;-81
2023/06/14 00:49:46;;;;;;;6.95;4.20;;;20.40;57.50;;;;;;5023700;28;20024;-81
2023/06/14 00:52:12;;;;;;;5.93;3.38;;;20.40;57.60;;;;;;5025676;28;20030;-81
2023/06/14 00:54:39;;;;;;;8.20;3.70;;;20.40;57.60;;;;;;5026421;28;20126;-81
2023/06/14 00:57:05;;;;;;;8.90;3.92;;;20.30;57.50;;;;;;5021763;28;20037;-81
2023/06/14 00:59:31;;;;;;;3.95;3.55;;;20.30;57.90;;;;;;5025269;28;20040;-81
2023/06/14 01:01:57;;;;;;;7.32;3.63;;;20.30;57.80;;;;;;5036471;28;20473;-81
2023/06/14 01:04:23;;;;;;;3.45;3.15;;;20.20;57.80;;;;;;5026616;28;20025;-81
2023/06/14 01:07:13;;;;;;;5.07;3.70;;;20.20;57.90;;;;;;5023534;28;20156;-81
2023/06/14 01:10:08;;;;;;;5.95;3.35;;;20.10;58.10;;;;;;5019364;28;20053;-81
2023/06/14 01:12:50;;;;;;;4.05;3.22;;;20.20;58.20;;;;;;5022678;28;20973;-81
2023/06/14 01:15:16;;;;;;;3.88;3.25;;;20.10;58.30;;;;;;5039683;28;20128;-81
2023/06/14 01:17:45;;;;;;;8.27;3.47;;;20.00;58.70;;;;;;5023181;28;20025;-81
2023/06/14 01:20:15;;;;;;;5.10;4.25;;;20.00;58.80;;;;;;5025727;28;20029;-81
2023/06/14 01:22:59;;;;;;;7.10;3.65;;;19.90;59.00;;;;;;5024764;28;20494;-80
2023/06/14 01:25:26;;;;;;;3.50;3.15;;;19.90;59.10;;;;;;5024953;28;20612;-81
2023/06/14 01:28:04;;;;;;;5.88;3.60;;;19.90;59.30;;;;;;5035526;28;20009;-81
2023/06/14 01:30:33;;;;;;;8.77;3.63;;;19.90;59.40;;;;;;5032773;28;20021;-81
2023/06/14 01:32:59;;;;;;;4.20;3.20;;;19.80;59.30;;;;;;5019717;28;20408;-80
2023/06/14 01:35:25;;;;;;;14.07;3.60;;;19.80;59.40;;;;;;5026835;28;20027;-81
2023/06/14 01:37:52;;;;;;;6.65;3.20;;;19.80;59.50;;;;;;5025462;28;20026;-80
2023/06/14 01:40:19;;;;;;;7.80;3.67;;;19.80;59.50;;;;;;5021054;28;20018;-80
2023/06/14 01:42:47;;;;;;;4.97;3.92;;;19.80;59.30;;;;;;5029370;28;20025;-81
2023/06/14 01:45:14;;;;;;;3.85;3.08;;;19.70;59.60;;;;;;5023661;28;20041;-80
2023/06/14 01:47:40;;;;;;;6.70;3.80;;;19.70;59.70;;;;;;5024766;28;20311;-78
2023/06/14 01:50:09;;;;;;;3.95;3.28;;;19.70;59.70;;;;;;5024107;28;20469;-78
2023/06/14 01:52:35;;;;;;;9.32;2.75;;;19.70;59.70;;;;;;5040013;28;20026;-78
2023/06/14 01:55:02;;;;;;;9.30;3.28;;;19.70;59.90;;;;;;5024364;28;20318;-78
2023/06/14 01:57:29;;;;;;;6.78;3.00;;;19.60;59.80;;;;;;5031949;28;20033;-79
2023/06/14 01:59:54;;;;;;;9.60;3.33;;;19.60;59.90;;;;;;5022582;28;20018;-79
2023/06/14 02:02:20;;;;;;;5.78;2.88;;;19.50;60.00;;;;;;5021101;28;20033;-78
2023/06/14 02:04:48;;;;;;;7.70;2.85;;;19.50;60.10;;;;;;5020250;28;20018;-79
2023/06/14 02:07:14;;;;;;;4.20;3.38;;;19.50;60.20;;;;;;5022491;28;20410;-79
2023/06/14 02:09:41;;;;;;;7.03;3.17;;;19.50;60.30;;;;;;5034055;28;20018;-79
2023/06/14 02:12:07;;;;;;;4.47;3.40;;;19.40;60.50;;;;;;5024498;28;20068;-79
2023/06/14 02:14:33;;;;;;;6.35;3.42;;;19.40;60.40;;;;;;5037756;28;20022;-79
2023/06/14 02:17:00;;;;;;;5.18;3.42;;;19.40;60.60;;;;;;5023566;28;20227;-79
2023/06/14 02:19:27;;;;;;;4.10;3.20;;;19.30;60.60;;;;;;5022256;28;20405;-79
2023/06/14 02:21:53;;;;;;;5.25;3.50;;;19.30;60.80;;;;;;5022313;28;20037;-79
2023/06/14 02:24:18;;;;;;;6.07;3.53;;;19.30;60.90;;;;;;5036044;28;20029;-79
2023/06/14 02:26:44;;;;;;;5.05;3.38;;;19.30;61.00;;;;;;5024923;28;20036;-79
2023/06/14 02:29:14;;;;;;;3.85;3.00;;;19.20;61.10;;;;;;5021625;28;20108;-82
2023/06/14 02:31:40;;;;;;;6.38;3.13;;;19.20;61.00;;;;;;5024909;28;20026;-82
2023/06/14 02:34:08;;;;;;;6.45;3.25;;;19.20;60.90;;;;;;5016995;28;21333;-81
2023/06/14 02:36:34;;;;;;;5.57;2.65;;;19.20;60.90;;;;;;5037952;28;20025;-82
2023/06/14 02:39:00;;;;;;;7.38;2.47;;;19.20;61.00;;;;;;5023765;28;20535;-81
2023/06/14 02:41:26;;;;;;;4.75;3.20;;;19.20;61.10;;;;;;5025031;28;20018;-81
2023/06/14 02:43:53;;;;;;;3.47;3.13;;;19.20;61.10;;;;;;5025509;28;20435;-82
2023/06/14 02:46:19;;;;;;;3.80;2.88;;;19.20;61.20;;;;;;5020531;28;20591;-82
2023/06/14 02:48:45;;;;;;;5.38;3.15;;;19.10;61.30;;;;;;5024238;28;20018;-82
2023/06/14 02:51:10;;;;;;;4.30;2.83;;;19.10;61.40;;;;;;5024077;28;20030;-82
2023/06/14 02:53:36;;;;;;;93.55;36.83;;;19.10;61.60;;;;;;5017387;28;20504;-79
2023/06/14 02:56:03;;;;;;;312.55;134.77;;;19.10;61.80;;;;;;5023931;28;20029;-80
2023/06/14 02:58:29;;;;;;;4.45;2.85;;;19.00;61.80;;;;;;5022565;28;20033;-82
2023/06/14 03:00:55;;;;;;;5.43;3.22;;;19.00;61.80;;;;;;5024267;28;20033;-82
2023/06/14 03:03:21;;;;;;;6.38;3.00;;;18.90;61.80;;;;;;5023600;28;20053;-82
2023/06/14 03:05:49;;;;;;;5.45;3.08;;;18.90;61.90;;;;;;5023606;28;20021;-82
2023/06/14 03:08:19;;;;;;;5.75;3.00;;;18.90;61.80;;;;;;5022808;28;20022;-83
2023/06/14 03:10:48;;;;;;;10.07;3.08;;;18.90;61.90;;;;;;5022841;28;20025;-82
2023/06/14 03:13:15;;;;;;;7.68;3.17;;;18.90;62.20;;;;;;5024417;28;20211;-82
2023/06/14 03:15:42;;;;;;;7.82;2.90;;;18.80;62.30;;;;;;5020966;28;20014;-79
2023/06/14 03:18:09;;;;;;;9.80;3.33;;;18.80;62.40;;;;;;5022400;28;20072;-79
2023/06/14 03:20:35;;;;;;;10.50;3.58;;;18.80;62.40;;;;;;5024121;28;20468;-79
2023/06/14 03:23:02;;;;;;;7.50;2.97;;;18.80;62.50;;;;;;5026272;28;20026;-79
2023/06/14 03:25:30;;;;;;;4.18;3.22;;;18.80;62.60;;;;;;5027221;28;20017;-78
2023/06/14 03:27:56;;;;;;;6.78;2.97;;;18.80;62.70;;;;;;5026640;28;20029;-79
2023/06/14 03:30:21;;;;;;;8.38;3.15;;;18.80;62.80;;;;;;5023293;28;20112;-79
2023/06/14 03:32:47;;;;;;;3.47;2.83;;;18.70;62.70;;;;;;5026861;28;20568;-78
2023/06/14 03:35:17;;;;;;;6.63;2.85;;;18.80;62.90;;;;;;5040435;28;20025;-79
2023/06/14 03:37:46;;;;;;;7.47;3.00;;;18.80;62.90;;;;;;5028100;28;20060;-78
2023/06/14 03:40:13;;;;;;;8.45;3.05;;;18.80;63.00;;;;;;5025545;28;20076;-79
2023/06/14 03:42:39;;;;;;;8.20;2.60;;;18.80;63.00;;;;;;5025967;28;20064;-83
2023/06/14 03:45:06;;;;;;;5.93;2.78;;;18.70;63.00;;;;;;5025208;28;20025;-82
2023/06/14 03:47:31;;;;;;;7.13;2.60;;;18.70;63.10;;;;;;5027468;28;20116;-83
2023/06/14 03:49:57;;;;;;;5.18;2.95;;;18.70;63.00;;;;;;5024978;28;20100;-81
2023/06/14 03:52:23;;;;;;;6.32;2.63;;;18.80;63.10;;;;;;5033055;28;20739;-82
2023/06/14 03:54:49;;;;;;;3.63;2.63;;;18.70;63.10;;;;;;5028151;28;20671;-83
2023/06/14 03:57:15;;;;;;;3.15;2.47;;;18.80;63.20;;;;;;5025359;28;20026;-82
2023/06/14 03:59:41;;;;;;;3.42;2.42;;;18.80;63.30;;;;;;5028806;28;20056;-82
2023/06/14 04:02:09;;;;;;;3.70;2.95;;;18.70;63.30;;;;;;5026051;28;20029;-82
2023/06/14 04:04:35;;;;;;;5.00;2.88;;;18.70;63.30;;;;;;5048515;28;20025;-81
2023/06/14 04:07:03;;;;;;;12.30;3.35;;;18.80;63.30;;;;;;5025437;28;20032;-82
2023/06/14 04:09:31;;;;;;;2.92;2.40;;;18.90;63.20;;;;;;5024610;28;20017;-82
2023/06/14 04:11:57;;;;;;;6.13;2.97;;;18.90;63.20;;;;;;5027929;28;20044;-82
2023/06/14 04:14:23;;;;;;;11.02;2.78;;;18.90;63.10;;;;;;5027856;28;20345;-80
2023/06/14 04:16:49;;;;;;;7.03;2.70;;;19.00;63.20;;;;;;5040894;28;20025;-79
2023/06/14 04:19:15;;;;;;;6.55;2.67;;;19.00;63.20;;;;;;5023748;28;20026;-79
2023/06/14 04:21:42;;;;;;;5.10;3.22;;;19.00;63.30;;;;;;5037256;28;20044;-79
2023/06/14 04:24:12;;;;;;;6.32;2.90;;;19.10;63.00;;;;;;5041320;28;20497;-79
2023/06/14 04:26:44;;;;;;;4.35;2.45;;;19.10;63.10;;;;;;5024773;28;20120;-79
2023/06/14 04:29:16;;;;;;;3.92;2.65;;;19.10;63.40;;;;;;5023786;28;20106;-79
2023/06/14 04:31:42;;;;;;;6.43;3.08;;;19.10;63.40;;;;;;5022889;28;20024;-83
2023/06/14 04:34:08;;;;;;;5.05;2.70;;;19.10;63.20;;;;;;5024564;28;20368;-79
2023/06/14 04:36:36;;;;;;;4.50;2.88;;;19.10;63.10;;;;;;5025797;28;20116;-79
2023/06/14 04:39:03;;;;;;;10.98;2.83;;;19.10;63.40;;;;;;5024886;28;20432;-79
2023/06/14 04:41:30;;;;;;;7.22;2.53;;;19.20;63.50;;;;;;5022543;28;20068;-80
2023/06/14 04:44:01;;;;;;;4.75;2.70;;;19.20;63.50;;;;;;5024691;28;20026;-79
2023/06/14 04:46:31;;;;;;;5.15;2.70;;;19.20;63.50;;;;;;5023937;28;20022;-82
2023/06/14 04:49:02;;;;;;;9.85;2.72;;;19.30;63.50;;;;;;5027196;28;20018;-82
2023/06/14 04:51:29;;;;;;;11.35;2.90;;;19.30;63.50;;;;;;5024590;28;20021;-79
2023/06/14 04:53:59;;;;;;;3.55;2.70;;;19.30;63.60;;;;;;5022504;28;20128;-79
2023/06/14 04:56:27;;;;;;;4.65;3.15;;;19.40;63.20;;;;;;5024869;28;20030;-77
2023/06/14 04:58:53;;;;;;;6.55;2.60;;;19.40;63.30;;;;;;5023082;28;20290;-85
2023/06/14 05:01:21;;;;;;;5.97;2.67;;;19.50;63.10;;;;;;5027104;28;20026;-84
2023/06/14 05:03:48;;;;;;;8.88;2.45;;;19.50;63.10;;;;;;5026274;28;20017;-82
2023/06/14 05:06:14;;;;;;;4.32;2.58;;;19.60;63.20;;;;;;5025433;28;20105;-84
2023/06/14 05:08:40;;;;;;;11.57;2.60;;;19.60;62.80;;;;;;5027992;28;20155;-85
2023/06/14 05:11:05;;;;;;;6.85;3.00;;;19.60;63.10;;;;;;5033580;28;20021;-84
2023/06/14 05:13:34;;;;;;;4.57;2.60;;;19.80;63.30;;;;;;5025053;28;20084;-84
2023/06/14 05:16:00;;;;;;;4.53;2.28;;;19.80;63.20;;;;;;5023803;28;20481;-84
2023/06/14 05:18:28;;;;;;;5.43;2.40;;;19.80;63.10;;;;;;5022496;28;20037;-84
2023/06/14 05:20:54;;;;;;;11.13;2.75;;;19.90;63.00;;;;;;5023194;28;20025;-77
2023/06/14 05:23:19;;;;;;;5.22;2.90;;;19.90;63.00;;;;;;5021822;28;20018;-76
2023/06/14 05:25:46;;;;;;;5.05;2.80;;;19.90;62.70;;;;;;5022377;28;20529;-77
2023/06/14 05:28:12;;;;;;;9.63;3.03;;;20.00;62.90;;;;;;5024348;28;20021;-77
2023/06/14 05:30:40;;;;;;;4.65;2.90;;;20.00;62.90;;;;;;5023105;28;20036;-77
2023/06/14 05:33:06;;;;;;;4.32;2.67;;;20.10;62.80;;;;;;5018967;28;20079;-79
2023/06/14 05:35:31;;;;;;;6.13;2.53;;;20.10;62.80;;;;;;5023239;28;20030;-78
2023/06/14 05:37:57;;;;;;;9.52;2.78;;;20.20;62.50;;;;;;5022986;28;20028;-76
2023/06/14 05:40:23;;;;;;;10.75;2.67;;;20.20;62.50;;;;;;5025630;28;20025;-88
2023/06/14 05:42:48;;;;;;;5.75;2.42;;;20.30;62.80;;;;;;5024145;28;20037;-77
2023/06/14 05:45:15;;;;;;;6.07;2.53;;;20.30;62.20;;;;;;5024223;28;20025;-77
2023/06/14 05:47:41;;;;;;;3.42;2.55;;;20.40;62.10;;;;;;5023116;28;20028;-77
2023/06/14 05:50:07;;;;;;;9.20;4.05;;;20.40;61.70;;;;;;5035167;28;20029;-78
2023/06/14 05:52:35;;;;;;;4.38;2.67;;;20.50;61.70;;;;;;5052337;28;20088;-79
2023/06/14 05:55:01;;;;;;;7.57;2.60;;;20.60;62.60;;;;;;5044329;28;20049;-77
2023/06/14 05:57:29;;;;;;;3.47;2.85;;;20.60;61.80;;;;;;5044612;28;20033;-84
2023/06/14 05:59:57;;;;;;;8.35;2.60;;;20.70;61.80;;;;;;5038049;28;20032;-83
2023/06/14 06:02:23;;;;;;;6.38;2.42;;;20.80;61.30;;;;;;5030854;28;20045;-85
2023/06/14 06:04:49;;;;;;;6.22;2.35;;;20.90;61.10;;;;;;5042392;28;20018;-85
2023/06/14 06:07:15;;;;;;;8.50;2.50;;;20.90;61.10;;;;;;5029930;28;20189;-77
2023/06/14 06:09:43;;;;;;;10.07;2.35;;;21.00;60.90;;;;;;5020923;28;20109;-77
2023/06/14 06:12:09;;;;;;;6.70;2.53;;;21.00;60.80;;;;;;5022947;28;20029;-77
2023/06/14 06:14:34;;;;;;;9.50;2.28;;;21.10;60.70;;;;;;5024603;28;20021;-78
2023/06/14 06:17:00;;;;;;;5.20;2.38;;;21.10;60.40;;;;;;5021935;28;20103;-77
2023/06/14 06:19:25;;;;;;;4.85;2.20;;;21.20;60.20;;;;;;5022400;28;20022;-79
2023/06/14 06:21:51;;;;;;;8.05;2.53;;;21.20;59.60;;;;;;5022657;28;20044;-77
2023/06/14 06:24:17;;;;;;;6.43;2.60;;;21.20;59.50;;;;;;5023906;28;20021;-77
2023/06/14 06:26:45;;;;;;;8.98;2.30;;;21.30;59.70;;;;;;5021357;28;20025;-78
2023/06/14 06:29:11;;;;;;;4.72;2.72;;;21.40;59.70;;;;;;5024923;28;20384;-78
2023/06/14 06:31:36;;;;;;;2.50;2.13;;;21.50;59.20;;;;;;5022535;28;20036;-78
2023/06/14 06:34:02;;;;;;;9.45;2.58;;;21.60;59.10;;;;;;5024114;28;20030;-75
2023/06/14 06:36:28;;;;;;;3.60;2.53;;;21.60;58.70;;;;;;5023380;28;20017;-78
2023/06/14 06:38:54;;;;;;;6.63;2.28;;;21.70;58.90;;;;;;5021347;28;20063;-79
2023/06/14 06:41:19;;;;;;;5.07;2.38;;;21.80;58.60;;;;;;5024307;28;20406;-75
2023/06/14 06:43:45;;;;;;;3.53;1.80;;;21.80;58.30;;;;;;5024196;28;20056;-77
2023/06/14 06:46:10;;;;;;;2.45;2.10;;;21.90;57.90;;;;;;5023680;28;20093;-76
2023/06/14 06:48:36;;;;;;;5.82;2.20;;;21.80;57.60;;;;;;5022070;28;20022;-76
2023/06/14 06:51:01;;;;;;;4.85;1.95;;;21.90;57.80;;;;;;5036282;28;20021;-76
2023/06/14 06:53:27;;;;;;;8.82;2.08;;;21.90;57.60;;;;;;5024611;28;20108;-77
2023/06/14 06:55:53;;;;;;;5.95;1.90;;;21.90;57.30;;;;;;5032240;28;20021;-85
2023/06/14 06:58:18;;;;;;;3.45;1.70;;;22.00;57.70;;;;;;5031141;28;20787;-84
2023/06/14 07:00:44;;;;;;;3.75;1.60;;;22.00;57.00;;;;;;5031108;28;20025;-84
2023/06/14 07:03:11;;;;;;;7.82;1.65;;;22.00;57.20;;;;;;5032291;28;20014;-85
2023/06/14 07:05:37;;;;;;;5.30;2.00;;;22.10;57.40;;;;;;5022660;28;20022;-84
2023/06/14 07:08:03;;;;;;;3.30;1.80;;;22.20;57.00;;;;;;5032752;28;20017;-84
2023/06/14 07:10:31;;;;;;;8.88;2.28;;;22.20;57.40;;;;;;5030157;28;20029;-86
2023/06/14 07:12:57;;;;;;;3.08;1.83;;;22.30;57.70;;;;;;5028158;28;20029;-84
2023/06/14 07:15:22;;;;;;;13.30;2.20;;;22.50;56.50;;;;;;5028645;28;20022;-82
2023/06/14 07:17:48;;;;;;;5.00;2.08;;;22.60;56.50;;;;;;5026718;28;20753;-82
2023/06/14 07:20:14;;;;;;;10.95;2.83;;;22.70;55.90;;;;;;5035585;28;20616;-83
2023/06/14 07:22:41;;;;;;;6.20;2.50;;;22.60;55.90;;;;;;5026240;28;20408;-82
2023/06/14 07:25:14;;;;;;;9.57;2.60;;;22.70;56.00;;;;;;5028362;28;20021;-84
2023/06/14 07:27:43;;;;;;;5.13;1.90;;;22.80;56.20;;;;;;5025757;28;20397;-82
2023/06/14 07:30:10;;;;;;;4.82;2.17;;;23.00;55.60;;;;;;5026140;28;20076;-82
2023/06/14 07:32:36;;;;;;;2.53;2.13;;;23.20;55.90;;;;;;5026551;28;20021;-82
2023/06/14 07:35:03;;;;;;;2.90;1.80;;;23.30;55.30;;;;;;5023514;28;20155;-82
2023/06/14 07:37:28;;;;;;;7.18;1.77;;;23.40;55.20;;;;;;5026626;28;20414;-82
2023/06/14 07:39:54;;;;;;;3.63;1.98;;;23.50;55.30;;;;;;5025463;28;20033;-81
2023/06/14 07:42:19;;;;;;;2.72;2.08;;;23.50;54.70;;;;;;5028996;28;20129;-82
2023/06/14 07:44:45;;;;;;;3.83;2.13;;;23.60;54.50;;;;;;5032085;28;20060;-82
2023/06/14 07:47:11;;;;;;;2.95;1.80;;;23.70;54.30;;;;;;5046175;28;20035;-80
2023/06/14 07:49:38;;;;;;;3.63;1.88;;;23.80;54.10;;;;;;5037900;28;20029;-82
2023/06/14 07:52:04;;;;;;;2.38;1.98;;;24.10;54.10;;;;;;5047546;28;20014;-81
2023/06/14 07:54:32;;;;;;;5.55;2.17;;;24.20;53.40;;;;;;5048267;28;20091;-82
2023/06/14 07:57:00;;;;;;;4.88;1.63;;;24.40;52.70;;;;;;5030747;28;20018;-82
2023/06/14 07:59:26;;;;;;;4.60;1.70;;;24.50;52.10;;;;;;5027275;28;20061;-80
2023/06/14 08:01:52;;;;;;;3.80;1.88;;;24.60;51.80;;;;;;5028049;28;20072;-82
2023/06/14 08:04:17;;;;;;;3.60;2.15;;;24.50;52.10;;;;;;5028286;28;20539;-83
2023/06/14 08:06:45;;;;;;;4.68;1.80;;;24.60;52.80;;;;;;5028193;28;20434;-82
2023/06/14 08:09:12;;;;;;;5.45;2.00;;;24.70;52.60;;;;;;5028284;28;20024;-82
2023/06/14 08:11:38;;;;;;;10.55;7.00;;;24.70;51.90;;;;;;5026652;28;20024;-75
2023/06/14 08:14:03;;;;;;;5.05;1.65;;;24.80;52.20;;;;;;5027175;28;20026;-75
2023/06/14 08:16:29;;;;;;;5.65;2.35;;;24.90;51.90;;;;;;5032787;28;20342;-76
2023/06/14 08:18:55;;;;;;;5.10;1.73;;;25.20;51.30;;;;;;5026576;28;20539;-75
2023/06/14 08:21:21;;;;;;;5.40;2.00;;;25.40;50.80;;;;;;5025965;28;20029;-75
2023/06/14 08:23:47;;;;;;;2.10;1.90;;;25.60;50.70;;;;;;5024195;28;20488;-75
2023/06/14 08:26:13;;;;;;;4.95;2.10;;;25.80;50.90;;;;;;5028562;28;20072;-76
2023/06/14 08:28:38;;;;;;;3.70;2.00;;;26.00;50.40;;;;;;5025519;28;20037;-76
2023/06/14 08:31:04;;;;;;;6.38;1.95;;;26.20;50.20;;;;;;5027313;28;20029;-76
2023/06/14 08:33:33;;;;;;;6.78;2.10;;;26.30;49.90;;;;;;5024754;28;20025;-77
2023/06/14 08:35:59;;;;;;;10.30;2.13;;;26.20;49.80;;;;;;5024633;28;20056;-77
2023/06/14 08:38:25;;;;;;;5.78;1.70;;;26.40;49.60;;;;;;5029345;28;20041;-76
2023/06/14 08:40:52;;;;;;;2.97;1.77;;;26.50;48.70;;;;;;5023596;28;20045;-77
2023/06/14 08:43:18;;;;;;;8.85;2.15;;;26.50;48.20;;;;;;5026528;28;20436;-77
2023/06/14 08:45:48;;;;;;;2.70;1.70;;;27.10;47.90;;;;;;5040893;28;20018;-76
2023/06/14 08:48:17;;;;;;;1.67;1.40;;;27.30;46.90;;;;;;5026033;28;20048;-77
2023/06/14 08:50:45;;;;;;;7.53;1.65;;;27.70;46.50;;;;;;5021293;28;20401;-76
2023/06/14 08:53:19;;;;;;;3.03;1.60;;;27.80;46.10;;;;;;5026754;28;20850;-76
2023/06/14 08:55:45;;;;;;;5.75;1.75;;;27.80;45.70;;;;;;5023400;28;20105;-76
2023/06/14 08:58:14;;;;;;;3.97;1.52;;;27.60;46.40;;;;;;5027498;28;20104;-76
2023/06/14 09:00:42;;;;;;;9.85;2.25;;;27.70;45.80;;;;;;5029287;28;20059;-76
2023/06/14 09:03:13;;;;;;;1.55;1.45;;;28.00;45.90;;;;;;5026161;28;20021;-76
2023/06/14 09:05:39;;;;;;;5.57;1.40;;;28.10;46.10;;;;;;5026519;28;20026;-75
2023/06/14 09:08:05;;;;;;;4.32;1.83;;;28.00;46.10;;;;;;5037717;28;20326;-77
2023/06/14 09:10:35;;;;;;;2.95;1.45;;;27.90;45.80;;;;;;5041753;28;20021;-77
2023/06/14 09:13:01;;;;;;;2.15;1.60;;;28.00;45.40;;;;;;5028562;28;20049;-76
2023/06/14 09:15:28;;;;;;;2.65;1.63;;;27.90;45.10;;;;;;5032649;28;20727;-76
2023/06/14 09:17:53;;;;;;;2.42;1.33;;;27.90;45.20;;;;;;5027473;28;20045;-76
2023/06/14 09:20:24;;;;;;;3.28;1.73;;;27.80;45.60;;;;;;5024018;28;20072;-77
2023/06/14 09:22:50;;;;;;;2.67;1.45;;;27.90;45.50;;;;;;5025935;28;20025;-76
2023/06/14 09:25:16;;;;;;;3.22;1.60;;;28.20;45.70;;;;;;5025537;28;20029;-76
2023/06/14 09:27:42;;;;;;;6.38;1.60;;;28.40;44.60;;;;;;5022923;28;20036;-75
2023/06/14 09:30:12;;;;;;;4.72;1.70;;;28.50;44.30;;;;;;5025319;28;20017;-84
2023/06/14 09:32:41;;;;;;;5.82;3.15;;;28.40;43.20;;;;;;5031186;28;20014;-85
2023/06/14 09:35:08;;;;;;;1.80;1.70;;;28.50;43.60;;;;;;5031966;28;20585;-86
2023/06/14 09:37:35;;;;;;;3.50;1.63;;;28.50;44.20;;;;;;5021114;28;20033;-77
2023/06/14 09:40:00;;;;;;;2.55;1.65;;;28.50;44.20;;;;;;5025701;28;20029;-76
2023/06/14 09:42:28;;;;;;;4.07;1.83;;;28.50;43.40;;;;;;5025590;28;20029;-76
2023/06/14 09:44:55;;;;;;;3.75;1.30;;;28.60;43.20;;;;;;5024338;28;20044;-76
2023/06/14 09:47:21;;;;;;;3.70;1.70;;;28.80;42.70;;;;;;5026080;28;20018;-76
2023/06/14 09:49:48;;;;;;;7.80;2.10;;;29.00;42.90;;;;;;5025013;28;20022;-76
2023/06/14 09:52:18;;;;;;;5.93;1.40;;;29.40;42.80;;;;;;5021583;28;20175;-76
2023/06/14 09:54:52;;;;;;;5.95;1.77;;;29.60;41.90;;;;;;5038800;28;20026;-76
2023/06/14 09:57:22;;;;;;;4.80;1.58;;;29.60;41.70;;;;;;5023495;28;20096;-76
2023/06/14 09:59:52;;;;;;;4.63;1.75;;;29.10;41.90;;;;;;5019401;28;20029;-76
2023/06/14 10:02:38;;;;;;;3.40;1.90;;;28.90;42.70;;;;;;5024123;28;20053;-76
2023/06/14 10:05:11;;;;;;;2.63;1.40;;;28.90;42.70;;;;;;5022034;28;20495;-76
2023/06/14 10:07:42;;;;;;;3.50;1.58;;;29.20;42.00;;;;;;5029680;28;20032;-76
2023/06/14 10:10:14;;;;;;;1.97;1.63;;;29.00;42.20;;;;;;5033761;28;20021;-83
2023/06/14 10:12:40;;;;;;;5.97;1.60;;;28.70;42.40;;;;;;5033886;28;20272;-83
2023/06/14 10:15:11;;;;;;;2.90;2.42;;;29.00;42.20;;;;;;5031944;28;20021;-83
2023/06/14 10:17:48;;;;;;;3.78;1.40;;;29.30;42.00;;;;;;5021145;28;20022;-86
2023/06/14 10:20:30;;;;;;;3.05;1.42;;;29.80;41.50;;;;;;5030189;28;20549;-85
2023/06/14 10:23:11;;;;;;;2.13;1.50;;;29.80;41.50;;;;;;5031998;28;20029;-85
2023/06/14 10:25:37;;;;;;;5.70;2.08;;;30.00;42.10;;;;;;5034631;28;20033;-85
2023/06/14 10:28:24;;;;;;;3.80;1.70;;;30.30;41.30;;;;;;5032018;28;20028;-88
2023/06/14 10:31:10;;;;;;;2.72;1.50;;;30.40;40.50;;;;;;5034498;28;20037;-87
2023/06/14 10:33:40;;;;;;;2.95;1.85;;;30.20;41.60;;;;;;5031547;28;20017;-86
2023/06/14 10:36:10;;;;;;;9.40;1.88;;;30.10;41.50;;;;;;5033516;28;20026;-87
2023/06/14 10:38:39;;;;;;;2.85;1.73;;;29.80;41.00;;;;;;5032162;28;20053;-85
2023/06/14 10:41:05;;;;;;;3.10;1.35;;;29.90;40.90;;;;;;5050695;28;20465;-85
2023/06/14 10:43:33;;;;;;;7.72;1.83;;;30.00;41.10;;;;;;5031210;28;20018;-84
2023/06/14 10:46:13;;;;;;;3.72;1.48;;;30.30;40.90;;;;;;5034873;28;20044;-84
2023/06/14 10:48:42;;;;;;;4.28;1.38;;;30.60;40.50;;;;;;5036248;28;20279;-85
2023/06/14 10:51:20;;;;;;;7.18;1.58;;;30.90;40.00;;;;;;5033721;28;20081;-85
2023/06/14 10:53:50;;;;;;;3.25;1.50;;;31.10;40.50;;;;;;5048215;28;20021;-87
2023/06/14 10:56:32;;;;;;;1.45;1.30;;;31.30;39.80;;;;;;5034643;28;20025;-90
2023/06/14 10:58:58;;;;;;;1.95;1.38;;;31.30;39.80;;;;;;5024554;28;20022;-77
2023/06/14 11:01:37;;;;;;;3.33;1.50;;;31.30;40.30;;;;;;5023647;28;20036;-77
2023/06/14 11:04:10;;;;;;;5.45;1.30;;;31.40;40.40;;;;;;5027229;28;20037;-83
2023/06/14 11:07:20;;;;;;;2.00;1.60;;;31.50;39.70;;;;;;5027579;28;20512;-77
2023/06/14 11:10:09;;;;;;;1.65;1.55;;;31.00;39.40;;;;;;5022809;28;20017;-77
2023/06/14 11:12:37;;;;;;;2.83;1.42;;;30.70;39.90;;;;;;5022721;28;20025;-77
2023/06/14 11:15:05;;;;;;;2.97;1.90;;;30.70;40.50;;;;;;5021063;28;20018;-77
2023/06/14 11:17:31;;;;;;;4.65;1.20;;;30.60;40.20;;;;;;5032572;28;20022;-86
2023/06/14 11:20:16;;;;;;;4.03;1.20;;;30.20;40.40;;;;;;5024061;28;20048;-78
2023/06/14 11:22:45;;;;;;;3.55;1.00;;;29.90;41.10;;;;;;5021710;28;20018;-77
2023/06/14 11:25:14;;;;;;;1.05;1.05;;;30.00;41.10;;;;;;5024387;28;20021;-76
2023/06/14 11:27:43;;;;;;;0.82;0.82;;;30.20;41.20;;;;;;5019856;28;20108;-77
2023/06/14 11:30:13;;;;;;;1.83;1.70;;;30.10;40.50;;;;;;5020492;28;20034;-77
2023/06/14 11:32:39;;;;;;;2.55;1.73;;;30.10;40.80;;;;;;5019529;28;20047;-77
2023/06/14 11:35:09;;;;;;;2.78;1.23;;;30.00;40.20;;;;;;5034287;28;20021;-86
2023/06/14 11:37:37;;;;;;;9.07;1.38;;;30.00;40.80;;;;;;5044797;28;20010;-87
2023/06/14 11:40:08;;;;;;;5.18;1.08;;;30.50;41.10;;;;;;5046201;28;20029;-83
2023/06/14 11:42:34;;;;;;;3.50;0.95;;;30.30;40.20;;;;;;5052622;28;20331;-81
2023/06/14 11:45:02;;;;;;;1.30;1.08;;;29.90;41.30;;;;;;5091480;23;20040;-87
2023/06/14 11:47:33;;;;;;;3.60;1.73;;;30.10;41.30;;;;;;5068058;28;20388;-90
2023/06/14 11:49:59;;;;;;;5.82;1.30;;;30.40;41.50;;;;;;5048781;28;20557;-79
2023/06/14 11:52:25;;;;;;;24.80;7.45;;;30.50;41.50;;;;;;5060689;28;20036;-77
2023/06/14 11:54:51;;;;;;;2.83;1.50;;;30.40;41.20;;;;;;5050311;28;20021;-83
2023/06/14 11:57:20;;;;;;;4.00;1.42;;;30.40;40.70;;;;;;5041900;28;20470;-84
2023/06/14 11:59:46;;;;;;;3.05;1.10;;;30.40;41.10;;;;;;5068582;28;20030;-86
2023/06/14 12:02:19;;;;;;;4.18;1.23;;;30.80;41.40;;;;;;5058855;28;20098;-86
2023/06/14 12:04:47;;;;;;;0.85;0.85;;;30.70;40.10;;;;;;5057688;28;20578;-87
2023/06/14 12:07:17;;;;;;;4.30;1.50;;;30.50;40.50;;;;;;5053555;28;20032;-85
2023/06/14 12:09:58;;;;;;;3.95;1.20;;;30.30;41.40;;;;;;5061315;28;20033;-84
2023/06/14 12:12:29;;;;;;;1.48;1.35;;;30.00;41.20;;;;;;5075675;28;20021;-83
2023/06/14 12:14:56;;;;;;;5.15;1.38;;;30.00;41.80;;;;;;5066348;28;20020;-87
2023/06/14 12:17:22;;;;;;;4.22;1.20;;;30.10;41.20;;;;;;5052983;28;20675;-78
2023/06/14 12:19:49;;;;;;;3.83;1.38;;;30.40;41.20;;;;;;5053828;28;20060;-76
2023/06/14 12:22:16;;;;;;;2.40;1.10;;;30.60;41.60;;;;;;5048589;28;20111;-77
2023/06/14 12:24:46;;;;;;;2.88;1.33;;;30.60;41.50;;;;;;5047714;28;20025;-77
2023/06/14 12:27:20;;;;;;;1.00;1.00;;;31.00;41.60;;;;;;5047078;28;20033;-77
2023/06/14 12:29:45;;;;;;;2.13;1.02;;;31.10;41.10;;;;;;5048309;28;20102;-77
2023/06/14 12:32:11;;;;;;;7.18;1.42;;;31.00;40.60;;;;;;5045771;28;20501;-77
2023/06/14 12:34:37;;;;;;;8.38;1.27;;;30.90;41.20;;;;;;5046423;28;20017;-77
2023/06/14 12:37:06;;;;;;;4.07;2.40;;;30.60;41.40;;;;;;5048873;28;20020;-83
2023/06/14 12:39:34;;;;;;;3.22;1.50;;;30.80;40.60;;;;;;5050374;28;20540;-85
2023/06/14 12:42:00;;;;;;;1.75;1.45;;;30.90;40.50;;;;;;5049890;28;20421;-82
2023/06/14 12:44:26;;;;;;;4.70;1.55;;;30.90;40.70;;;;;;5054835;28;20043;-83
2023/06/14 12:46:54;;;;;;;1.80;1.60;;;31.00;40.80;;;;;;5055363;28;20044;-85
2023/06/14 12:49:20;;;;;;;1.77;1.50;;;31.10;40.80;;;;;;5054399;28;20024;-83